Time;durP1;ratioP1;P1;durP2;ratioP2;P2;SDS_P1;SDS_P2;PMS_P1;PMS_P2;Temp;Humidity;BMP_temperature;BMP_pressure;BME280_temperature;BME280_humidity;BME280_pressure;Samples;Min_cycle;Max_cycle;Signal;HPM_P1;HPM_P2
2021/12/17 00:04:37;;;;;;;4.68;2.40;;;2.30;99.90;;;;;;5053458;28;20067;-79
2021/12/17 00:07:14;;;;;;;5.68;3.55;;;2.30;99.90;;;;;;5054259;28;20025;-79
2021/12/17 00:09:42;;;;;;;3.13;2.58;;;2.30;99.90;;;;;;5053089;28;20025;-80
2021/12/17 00:12:13;;;;;;;3.15;2.60;;;2.30;99.90;;;;;;5053221;28;20036;-78
2021/12/17 00:14:41;;;;;;;5.30;2.63;;;2.30;99.90;;;;;;5042592;28;20017;-79
2021/12/17 00:17:11;;;;;;;5.07;3.28;;;2.40;99.90;;;;;;5052764;28;20021;-80
2021/12/17 00:52:31;;;;;;;5.75;3.40;;;2.30;99.90;;;;;;5055649;28;20108;-79
2021/12/17 00:54:57;;;;;;;6.25;4.25;;;2.30;99.90;;;;;;5055420;28;20017;-80
2021/12/17 00:57:29;;;;;;;5.43;4.28;;;2.30;99.90;;;;;;5055714;28;20497;-78
2021/12/17 00:59:56;;;;;;;7.10;4.45;;;2.30;99.90;;;;;;5056685;28;20028;-78
2021/12/17 01:02:26;;;;;;;5.82;4.40;;;2.20;99.90;;;;;;5054418;28;20017;-79
2021/12/17 01:04:57;;;;;;;5.60;4.22;;;2.20;99.90;;;;;;5055400;28;20025;-78
2021/12/17 01:07:25;;;;;;;7.25;5.03;;;2.20;99.90;;;;;;5054207;28;20033;-79
2021/12/17 01:09:52;;;;;;;4.72;4.22;;;2.20;99.90;;;;;;5054235;28;20482;-79
2021/12/17 01:12:21;;;;;;;7.88;4.53;;;2.20;99.90;;;;;;5054703;28;20036;-79
2021/12/17 01:14:49;;;;;;;8.80;5.82;;;2.20;99.90;;;;;;5055413;28;20385;-79
2021/12/17 01:17:18;;;;;;;6.50;5.18;;;2.20;99.90;;;;;;5054740;28;20040;-78
2021/12/17 01:22:48;;;;;;;6.75;5.57;;;2.10;99.90;;;;;;5055309;28;20017;-80
2021/12/17 01:25:40;;;;;;;7.32;4.72;;;2.10;99.90;;;;;;5054776;28;20025;-79
2021/12/17 01:36:23;;;;;;;10.25;6.57;;;2.10;99.90;;;;;;5044389;28;20047;-80
2021/12/17 01:44:08;;;;;;;6.82;5.38;;;2.10;99.90;;;;;;5055107;28;20020;-80
2021/12/17 01:46:36;;;;;;;7.47;5.95;;;2.10;99.90;;;;;;5054712;28;20063;-79
2021/12/17 01:59:59;;;;;;;8.23;5.57;;;1.90;99.90;;;;;;5056827;28;20032;-79
2021/12/17 02:02:26;;;;;;;8.02;5.78;;;1.90;99.90;;;;;;5059158;28;20032;-80
2021/12/17 02:04:52;;;;;;;10.18;6.68;;;1.90;99.90;;;;;;5049413;28;20025;-81
2021/12/17 02:07:18;;;;;;;9.13;7.25;;;1.90;99.90;;;;;;5057271;28;20045;-81
2021/12/17 02:11:10;;;;;;;9.00;6.22;;;1.90;99.90;;;;;;5058958;28;20025;-82
2021/12/17 02:32:11;;;;;;;11.27;7.70;;;1.90;99.90;;;;;;5069934;28;20054;-80
2021/12/17 02:37:27;;;;;;;8.52;6.10;;;1.80;99.90;;;;;;5054075;28;20469;-80
2021/12/17 02:47:58;;;;;;;11.38;6.53;;;1.80;99.90;;;;;;5054021;28;20040;-79
2021/12/17 02:50:24;;;;;;;10.10;7.25;;;1.80;99.90;;;;;;5053553;28;20056;-79
2021/12/17 02:52:53;;;;;;;7.57;5.55;;;1.90;99.90;;;;;;5051867;28;20477;-80
2021/12/17 02:55:19;;;;;;;6.38;5.45;;;1.90;99.90;;;;;;5039896;28;20391;-80
2021/12/17 02:57:45;;;;;;;7.90;5.80;;;2.00;99.90;;;;;;5033861;28;20025;-79
2021/12/17 03:00:12;;;;;;;5.43;4.38;;;2.00;99.90;;;;;;5035309;28;20057;-81
2021/12/17 03:02:39;;;;;;;6.40;4.95;;;2.00;99.90;;;;;;5033552;28;20029;-81
2021/12/17 03:05:06;;;;;;;8.95;5.70;;;2.10;99.90;;;;;;5033091;28;20022;-81
2021/12/17 03:07:36;;;;;;;6.65;5.35;;;2.10;99.90;;;;;;5033388;28;20040;-81
2021/12/17 03:10:05;;;;;;;6.90;4.95;;;2.10;99.90;;;;;;5033388;28;20508;-81
2021/12/17 03:12:45;;;;;;;9.07;6.40;;;2.20;99.90;;;;;;5034076;28;20513;-81
2021/12/17 03:15:33;;;;;;;7.68;5.43;;;2.20;99.90;;;;;;5053233;28;20025;-82
2021/12/17 03:26:02;;;;;;;6.18;4.78;;;2.30;99.90;;;;;;5040898;28;20041;-80
2021/12/17 03:28:28;;;;;;;7.47;5.03;;;2.30;99.90;;;;;;5034983;28;20185;-81
2021/12/17 03:30:54;;;;;;;5.32;3.75;;;2.30;99.90;;;;;;5033301;28;20030;-81
2021/12/17 03:33:21;;;;;;;11.02;4.70;;;2.30;99.90;;;;;;5036585;28;20028;-81
2021/12/17 03:35:48;;;;;;;8.20;4.68;;;2.30;99.90;;;;;;5034750;28;20032;-80
2021/12/17 03:38:14;;;;;;;6.50;4.70;;;2.30;99.90;;;;;;5033652;28;20036;-81
2021/12/17 03:40:42;;;;;;;6.75;4.68;;;2.30;99.90;;;;;;5033398;28;20029;-80
2021/12/17 03:43:12;;;;;;;7.25;5.35;;;2.30;99.90;;;;;;5032901;28;20041;-80
2021/12/17 03:45:40;;;;;;;5.57;3.85;;;2.20;99.90;;;;;;5033056;28;20367;-80
2021/12/17 03:48:08;;;;;;;7.40;3.83;;;2.20;99.90;;;;;;5031417;28;20029;-80
2021/12/17 03:50:36;;;;;;;5.60;4.72;;;2.20;99.90;;;;;;5032775;28;20025;-80
2021/12/17 03:53:03;;;;;;;7.15;2.88;;;2.20;99.90;;;;;;5032691;28;20136;-82
2021/12/17 03:55:29;;;;;;;4.05;3.03;;;2.10;99.90;;;;;;5047832;28;20425;-80
2021/12/17 03:57:59;;;;;;;7.50;2.92;;;2.10;99.90;;;;;;5039166;28;20037;-82
2021/12/17 04:00:25;;;;;;;5.45;2.85;;;2.00;99.70;;;;;;5042189;28;20044;-81
2021/12/17 04:02:50;;;;;;;4.63;3.15;;;2.00;99.70;;;;;;5043651;28;20017;-79
2021/12/17 04:05:17;;;;;;;3.08;2.38;;;2.00;99.60;;;;;;5041777;28;20115;-82
2021/12/17 04:07:42;;;;;;;4.22;2.40;;;2.00;99.40;;;;;;5048002;28;20494;-81
2021/12/17 04:10:09;;;;;;;2.85;2.08;;;2.00;99.30;;;;;;5056554;28;20028;-81
2021/12/17 04:15:19;;;;;;;3.75;2.10;;;1.90;99.30;;;;;;5052994;28;20028;-80
2021/12/17 04:17:52;;;;;;;2.92;1.73;;;1.90;99.10;;;;;;5052281;28;20096;-80
2021/12/17 04:20:18;;;;;;;2.20;1.77;;;1.90;99.00;;;;;;5047451;28;20025;-81
2021/12/17 04:22:44;;;;;;;5.03;2.15;;;2.00;99.00;;;;;;5056282;28;20131;-80
2021/12/17 04:25:10;;;;;;;2.75;2.08;;;2.10;99.00;;;;;;5056007;28;20025;-80
2021/12/17 04:27:36;;;;;;;4.25;2.10;;;2.10;98.90;;;;;;5056343;28;20163;-81
2021/12/17 04:30:02;;;;;;;3.35;2.47;;;2.10;98.80;;;;;;5056957;28;20028;-81
2021/12/17 04:32:28;;;;;;;3.17;2.10;;;2.20;98.80;;;;;;5041211;28;20055;-81
2021/12/17 04:34:54;;;;;;;2.78;2.22;;;2.20;98.70;;;;;;5057298;28;20107;-81
2021/12/17 04:37:20;;;;;;;3.70;2.47;;;2.20;98.50;;;;;;5063831;28;20049;-81
2021/12/17 04:39:45;;;;;;;3.38;2.63;;;2.10;98.50;;;;;;5062613;28;20044;-80
2021/12/17 04:42:18;;;;;;;2.78;1.95;;;2.20;98.60;;;;;;5058907;28;20083;-81
2021/12/17 04:44:52;;;;;;;3.88;2.65;;;2.20;98.70;;;;;;5056842;28;20477;-82
2021/12/17 04:57:46;;;;;;;3.13;1.48;;;2.10;99.00;;;;;;5057564;28;20110;-80
2021/12/17 05:00:19;;;;;;;3.08;1.80;;;2.00;98.90;;;;;;5056580;28;20032;-81
2021/12/17 05:02:48;;;;;;;3.03;1.70;;;2.00;98.70;;;;;;5066547;28;20021;-82
2021/12/17 05:05:15;;;;;;;2.78;1.80;;;1.90;98.70;;;;;;5061014;28;20032;-82
2021/12/17 05:07:47;;;;;;;;;;;1.80;98.70;;;;;;5059282;28;20037;-81
2021/12/17 05:18:28;;;;;;;1.85;1.67;;;1.80;99.00;;;;;;5056022;28;20477;-82
2021/12/17 05:21:00;;;;;;;2.33;1.60;;;1.80;98.80;;;;;;5055020;28;20029;-81
2021/12/17 05:23:34;;;;;;;2.08;1.92;;;1.80;98.90;;;;;;5055346;28;20017;-81
2021/12/17 05:26:08;;;;;;;2.25;1.63;;;1.90;98.90;;;;;;5055074;28;20033;-82
2021/12/17 05:28:34;;;;;;;3.55;1.92;;;1.90;98.80;;;;;;5055325;28;20028;-81
2021/12/17 05:31:00;;;;;;;2.75;1.63;;;1.80;98.60;;;;;;5046144;28;20537;-80
2021/12/17 05:33:26;;;;;;;3.22;2.20;;;1.90;98.70;;;;;;5037035;28;20109;-80
2021/12/17 05:35:54;;;;;;;3.45;2.05;;;1.80;98.50;;;;;;5056672;28;20033;-81
2021/12/17 05:38:22;;;;;;;1.90;1.45;;;1.80;98.20;;;;;;5056334;28;20075;-81
2021/12/17 05:40:49;;;;;;;2.97;1.30;;;1.80;98.00;;;;;;5055797;28;20032;-80
2021/12/17 05:43:15;;;;;;;2.85;1.35;;;1.70;97.90;;;;;;5055204;28;20044;-81
2021/12/17 05:48:25;;;;;;;2.00;1.52;;;1.70;98.10;;;;;;5034859;28;20117;-80
2021/12/17 05:50:55;;;;;;;2.00;1.65;;;1.60;98.10;;;;;;5034749;28;20033;-80
2021/12/17 05:53:22;;;;;;;3.95;1.70;;;1.60;98.20;;;;;;5034589;28;20037;-80
2021/12/17 05:55:48;;;;;;;1.35;1.23;;;1.60;98.30;;;;;;5033146;28;20191;-80
2021/12/17 05:58:15;;;;;;;1.73;1.35;;;1.50;98.20;;;;;;5034584;28;20136;-81
2021/12/17 06:00:41;;;;;;;1.95;1.50;;;1.50;98.30;;;;;;5036841;28;20029;-80
2021/12/17 06:03:08;;;;;;;2.55;1.20;;;1.50;98.20;;;;;;5034961;28;20045;-80
2021/12/17 06:05:34;;;;;;;2.50;1.70;;;1.60;98.20;;;;;;5034640;28;20381;-80
2021/12/17 06:08:00;;;;;;;2.25;1.30;;;1.60;98.30;;;;;;5034685;28;20021;-81
2021/12/17 06:10:26;;;;;;;4.72;1.63;;;1.70;98.20;;;;;;5033982;28;20025;-80
2021/12/17 06:12:52;;;;;;;2.22;1.95;;;1.80;98.10;;;;;;5034459;28;20445;-80
2021/12/17 06:15:20;;;;;;;2.13;1.30;;;1.80;97.90;;;;;;5034413;28;20024;-82
2021/12/17 06:17:46;;;;;;;2.35;1.70;;;1.80;97.90;;;;;;5034092;28;20057;-81
2021/12/17 06:20:14;;;;;;;2.65;1.77;;;1.80;98.00;;;;;;5033860;28;20382;-81
2021/12/17 06:22:40;;;;;;;;;;;1.90;97.80;;;;;;5034445;28;20100;-79
2021/12/17 06:25:08;;;;;;;2.75;1.73;;;1.90;97.90;;;;;;5035164;28;19996;-80
2021/12/17 06:27:35;;;;;;;5.90;2.17;;;1.90;97.50;;;;;;5034204;28;20438;-80
2021/12/17 06:30:03;;;;;;;2.65;1.58;;;1.90;97.60;;;;;;5034385;28;20017;-79
2021/12/17 06:32:29;;;;;;;2.38;1.33;;;1.90;97.30;;;;;;5034382;28;20394;-81
2021/12/17 06:34:54;;;;;;;2.55;1.48;;;2.00;97.00;;;;;;5033921;28;20104;-82
2021/12/17 06:37:21;;;;;;;1.25;1.10;;;2.00;96.70;;;;;;5034148;28;20466;-82
2021/12/17 06:39:48;;;;;;;3.10;1.95;;;2.00;96.50;;;;;;5034202;28;20072;-81
2021/12/17 06:42:22;;;;;;;2.70;1.95;;;2.00;96.60;;;;;;5033965;28;20050;-82
2021/12/17 06:44:48;;;;;;;2.75;1.52;;;2.00;96.80;;;;;;5035298;28;20053;-81
2021/12/17 06:54:35;;;;;;;3.55;2.58;;;2.00;96.60;;;;;;5033902;28;20399;-79
2021/12/17 07:01:04;;;;;;;3.85;2.40;;;2.10;96.50;;;;;;5041494;28;20039;-80
2021/12/17 07:09:42;;;;;;;2.65;2.20;;;2.10;96.10;;;;;;5063268;28;20037;-80
2021/12/17 07:28:07;;;;;;;2.80;2.13;;;2.40;95.70;;;;;;5053996;28;20029;-79
2021/12/17 07:28:13;;;;;;;4.70;2.70;;;2.40;95.60;;;;;;5054424;28;20127;-80
2021/12/17 07:33:36;;;;;;;6.45;3.00;;;2.50;95.90;;;;;;5057067;28;20081;-81
2021/12/17 07:36:09;;;;;;;4.15;2.92;;;2.60;95.60;;;;;;5058815;28;20021;-81
2021/12/17 07:38:38;;;;;;;6.30;2.60;;;2.60;95.40;;;;;;5054032;28;20028;-79
2021/12/17 07:41:06;;;;;;;4.45;3.17;;;2.60;95.10;;;;;;5053363;28;20045;-82
2021/12/17 07:46:09;;;;;;;4.57;2.90;;;2.60;95.00;;;;;;5053402;28;20025;-80
2021/12/17 07:48:37;;;;;;;9.30;3.25;;;2.70;94.70;;;;;;5046762;28;20026;-82
2021/12/17 07:51:07;;;;;;;3.13;2.75;;;2.70;94.70;;;;;;5038010;28;20037;-80
2021/12/17 07:53:34;;;;;;;3.80;2.38;;;2.60;94.60;;;;;;5051983;28;20028;-79
2021/12/17 07:56:07;;;;;;;5.22;3.15;;;2.60;94.50;;;;;;5052082;28;20025;-81
2021/12/17 07:58:34;;;;;;;3.38;2.22;;;2.60;94.60;;;;;;5051464;28;20060;-80
2021/12/17 08:01:01;;;;;;;4.40;3.00;;;2.60;94.60;;;;;;5053213;28;20112;-80
2021/12/17 08:03:27;;;;;;;3.47;2.63;;;2.50;94.70;;;;;;5051757;28;20025;-80
2021/12/17 08:05:58;;;;;;;3.83;3.13;;;2.50;94.80;;;;;;5053545;28;20064;-81
2021/12/17 08:08:24;;;;;;;3.15;2.53;;;2.40;94.90;;;;;;5056998;28;20043;-80
2021/12/17 08:10:50;;;;;;;2.95;2.60;;;2.50;94.90;;;;;;5054998;28;20059;-81
2021/12/17 08:13:27;;;;;;;3.78;2.33;;;2.40;94.60;;;;;;5053491;28;20029;-81
2021/12/17 08:31:27;;;;;;;5.25;3.10;;;2.30;94.90;;;;;;5055064;28;20025;-82
2021/12/17 08:34:02;;;;;;;2.45;2.03;;;2.40;95.00;;;;;;5054738;28;20104;-82
2021/12/17 08:36:29;;;;;;;5.28;4.03;;;2.40;94.70;;;;;;5053205;28;20028;-84
2021/12/17 08:38:55;;;;;;;3.55;3.25;;;2.40;94.50;;;;;;5055288;28;20478;-83
2021/12/17 08:41:22;;;;;;;5.70;3.00;;;2.40;94.20;;;;;;5055271;28;20057;-83
2021/12/17 08:43:48;;;;;;;4.15;3.22;;;2.40;94.00;;;;;;5055709;28;20045;-84
2021/12/17 08:46:14;;;;;;;4.63;3.20;;;2.40;94.10;;;;;;5057204;28;20033;-84
2021/12/17 08:48:40;;;;;;;3.60;3.05;;;2.50;94.00;;;;;;5039287;28;20380;-82
2021/12/17 08:51:08;;;;;;;6.47;3.20;;;2.60;94.00;;;;;;5039361;28;20017;-83
2021/12/17 08:53:34;;;;;;;6.45;3.88;;;2.60;94.00;;;;;;5056778;28;20070;-84
2021/12/17 08:56:00;;;;;;;4.70;3.28;;;2.60;93.90;;;;;;5059281;28;20025;-85
2021/12/17 08:58:26;;;;;;;5.18;4.00;;;2.60;94.00;;;;;;5057925;28;20018;-87
2021/12/17 09:00:52;;;;;;;6.05;3.85;;;2.60;94.30;;;;;;5058365;28;20036;-82
2021/12/17 09:03:18;;;;;;;7.15;4.15;;;2.70;94.20;;;;;;5059132;28;20020;-81
2021/12/17 09:05:46;;;;;;;8.13;4.90;;;2.70;94.30;;;;;;5057219;28;20102;-85
2021/12/17 09:08:12;;;;;;;;;;;2.70;94.40;;;;;;5057721;28;20082;-84
2021/12/17 09:10:38;;;;;;;9.93;4.53;;;2.70;94.80;;;;;;5057956;28;19904;-84
2021/12/17 09:13:05;;;;;;;9.77;4.37;;;2.70;94.30;;;;;;5058805;28;20024;-84
2021/12/17 09:15:31;;;;;;;5.35;4.13;;;2.70;94.30;;;;;;5057321;28;20158;-81
2021/12/17 09:17:58;;;;;;;5.10;3.85;;;2.70;94.30;;;;;;5060614;28;20032;-84
2021/12/17 09:20:24;;;;;;;6.15;4.60;;;2.70;94.20;;;;;;5058831;28;20109;-80
2021/12/17 09:22:51;;;;;;;5.28;3.95;;;2.70;94.30;;;;;;5056950;28;20017;-81
2021/12/17 09:25:17;;;;;;;6.00;4.28;;;2.70;94.30;;;;;;5057729;28;20532;-82
2021/12/17 09:27:44;;;;;;;5.95;4.22;;;2.80;94.30;;;;;;5060116;28;20044;-82
2021/12/17 09:30:16;;;;;;;5.57;4.03;;;2.80;94.20;;;;;;5061834;28;20475;-83
2021/12/17 09:32:42;;;;;;;6.05;4.05;;;2.80;94.20;;;;;;5057636;28;20021;-84
2021/12/17 09:35:10;;;;;;;4.93;4.43;;;2.90;94.10;;;;;;5059250;28;20024;-84
2021/12/17 09:37:36;;;;;;;;;;;2.90;94.10;;;;;;5056709;28;20470;-82
2021/12/17 09:40:06;;;;;;;5.63;5.10;;;2.90;94.20;;;;;;5057800;28;19911;-83
2021/12/17 09:42:35;;;;;;;5.80;3.97;;;2.90;94.00;;;;;;5058399;28;20126;-81
2021/12/17 09:45:02;;;;;;;7.28;4.57;;;2.90;94.00;;;;;;5057348;28;20043;-84
2021/12/17 09:47:28;;;;;;;5.65;3.75;;;3.00;93.90;;;;;;5039365;28;20107;-82
2021/12/17 09:49:56;;;;;;;4.25;3.60;;;2.90;93.60;;;;;;5038163;28;20025;-83
2021/12/17 09:52:24;;;;;;;5.90;4.07;;;3.00;93.60;;;;;;5043487;28;20020;-85
2021/12/17 09:54:50;;;;;;;7.68;4.10;;;2.90;93.50;;;;;;5059955;28;20110;-83
2021/12/17 09:57:17;;;;;;;4.75;4.20;;;2.90;93.60;;;;;;5058405;28;20111;-86
2021/12/17 09:59:43;;;;;;;7.32;4.35;;;2.90;93.90;;;;;;5057711;28;20024;-84
2021/12/17 10:02:09;;;;;;;7.00;5.10;;;2.80;93.80;;;;;;5059922;28;20025;-81
2021/12/17 10:04:38;;;;;;;6.30;4.25;;;2.80;94.10;;;;;;5061709;28;20044;-83
2021/12/17 10:07:26;;;;;;;7.95;6.00;;;2.70;94.50;;;;;;5059084;28;20386;-85
2021/12/17 10:09:55;;;;;;;;;;;2.70;95.00;;;;;;5057560;28;20134;-82
2021/12/17 10:12:32;;;;;;;12.80;6.63;;;2.60;95.10;;;;;;5057514;28;19904;-82
2021/12/17 10:15:16;;;;;;;12.15;6.95;;;2.50;95.90;;;;;;5058553;28;20098;-85
2021/12/17 10:18:00;;;;;;;9.25;6.15;;;2.50;96.40;;;;;;5057510;28;20028;-84
2021/12/17 10:20:34;;;;;;;10.02;6.43;;;2.50;96.70;;;;;;5056075;28;20382;-85
2021/12/17 10:23:07;;;;;;;8.93;6.07;;;2.40;96.90;;;;;;5058730;28;20090;-84
2021/12/17 10:25:38;;;;;;;7.70;5.10;;;2.40;97.10;;;;;;5057841;28;20032;-84
2021/12/17 10:28:05;;;;;;;8.73;6.80;;;2.40;97.10;;;;;;5056384;28;20021;-83
2021/12/17 10:30:32;;;;;;;;;;;2.40;97.00;;;;;;5058011;28;20025;-84
2021/12/17 10:33:02;;;;;;;5.25;4.57;;;2.40;97.00;;;;;;5058014;28;19944;-85
2021/12/17 10:35:43;;;;;;;6.57;5.40;;;2.50;97.10;;;;;;5062330;28;20040;-82
2021/12/17 10:38:12;;;;;;;8.80;5.30;;;2.50;96.90;;;;;;5055151;28;20025;-86
2021/12/17 10:40:45;;;;;;;7.72;4.43;;;2.50;96.60;;;;;;5058165;28;20059;-81
2021/12/17 10:43:21;;;;;;;6.75;5.38;;;2.50;96.30;;;;;;5057288;28;20495;-84
2021/12/17 10:51:28;;;;;;;7.25;5.25;;;2.70;96.10;;;;;;5037729;28;20030;-85
2021/12/17 10:53:57;;;;;;;6.63;4.40;;;2.80;95.70;;;;;;5037922;28;20037;-84
2021/12/17 10:56:26;;;;;;;6.38;3.90;;;2.90;95.70;;;;;;5035642;28;20026;-81
2021/12/17 10:59:01;;;;;;;7.97;4.38;;;2.90;95.20;;;;;;5037056;28;20022;-86
2021/12/17 11:02:00;;;;;;;6.68;4.65;;;3.00;94.80;;;;;;5035621;28;20018;-84
2021/12/17 11:04:31;;;;;;;5.47;4.40;;;3.00;94.30;;;;;;5035031;28;20037;-83
2021/12/17 11:07:10;;;;;;;4.50;3.70;;;3.00;94.10;;;;;;5036477;28;20453;-82
2021/12/17 11:09:57;;;;;;;6.28;3.88;;;3.00;93.60;;;;;;5036197;28;20120;-81
2021/12/17 11:12:26;;;;;;;9.15;3.97;;;2.90;93.40;;;;;;5037272;28;20391;-82
2021/12/17 11:14:54;;;;;;;4.93;4.15;;;2.90;93.10;;;;;;5042871;28;20022;-83
2021/12/17 11:17:22;;;;;;;5.97;3.40;;;2.80;93.10;;;;;;5038464;28;20101;-83
2021/12/17 11:19:54;;;;;;;5.50;3.60;;;2.80;93.10;;;;;;5037006;28;20030;-83
2021/12/17 11:22:23;;;;;;;11.07;4.05;;;2.80;93.20;;;;;;5037741;28;20022;-85
2021/12/17 11:24:49;;;;;;;4.35;3.47;;;2.80;92.80;;;;;;5037763;28;20025;-83
2021/12/17 11:27:15;;;;;;;5.45;2.72;;;2.90;92.80;;;;;;5034929;28;20029;-81
2021/12/17 11:29:42;;;;;;;4.43;2.90;;;2.90;92.80;;;;;;5036375;28;20021;-84
2021/12/17 11:32:08;;;;;;;5.72;3.45;;;3.00;92.50;;;;;;5035836;28;20457;-82
2021/12/17 11:34:35;;;;;;;5.43;2.70;;;3.00;92.00;;;;;;5038137;28;20049;-86
2021/12/17 11:37:03;;;;;;;4.97;3.37;;;3.00;91.80;;;;;;5038103;28;20038;-83
2021/12/17 11:39:35;;;;;;;5.57;4.30;;;3.00;91.50;;;;;;5036697;28;20382;-85
2021/12/17 11:42:33;;;;;;;9.25;5.22;;;3.00;91.60;;;;;;5035099;28;20133;-82
2021/12/17 11:47:47;;;;;;;7.65;3.58;;;3.10;92.00;;;;;;5056362;28;20044;-82
2021/12/17 11:50:18;;;;;;;5.00;3.50;;;3.10;91.80;;;;;;5056326;28;20021;-82
2021/12/17 11:52:46;;;;;;;11.18;3.97;;;3.20;91.80;;;;;;5057531;28;20018;-83
2021/12/17 11:55:34;;;;;;;6.38;3.88;;;3.20;91.30;;;;;;5056945;28;20028;-84
2021/12/17 11:58:07;;;;;;;4.32;3.80;;;3.10;91.00;;;;;;5056888;28;20022;-84
2021/12/17 12:00:39;;;;;;;7.32;4.88;;;3.00;91.20;;;;;;5054914;28;20323;-86
2021/12/17 12:03:19;;;;;;;7.38;4.05;;;3.00;91.50;;;;;;5055589;28;20082;-84
2021/12/17 12:05:47;;;;;;;8.68;4.88;;;3.00;91.80;;;;;;5056245;28;20118;-83
2021/12/17 12:08:39;;;;;;;7.65;4.57;;;3.00;92.00;;;;;;5056614;28;20029;-84
2021/12/17 12:11:10;;;;;;;7.50;4.03;;;3.10;92.00;;;;;;5056130;28;20025;-84
2021/12/17 12:13:45;;;;;;;5.90;4.25;;;3.00;91.90;;;;;;5057121;28;20021;-82
2021/12/17 12:16:32;;;;;;;7.45;3.97;;;3.00;91.80;;;;;;5061287;28;20037;-84
2021/12/17 12:19:04;;;;;;;;;;;3.10;91.80;;;;;;5065453;28;20029;-83
2021/12/17 12:21:35;;;;;;;7.00;4.18;;;3.00;91.60;;;;;;5060940;28;19905;-83
2021/12/17 12:24:15;;;;;;;4.95;3.63;;;3.00;91.50;;;;;;5059232;28;20066;-82
2021/12/17 12:26:49;;;;;;;5.78;3.88;;;3.00;91.50;;;;;;5059074;28;20033;-82
2021/12/17 12:29:21;;;;;;;4.47;2.75;;;3.00;91.70;;;;;;5059380;28;20068;-85
2021/12/17 12:31:53;;;;;;;5.45;3.40;;;3.00;90.90;;;;;;5060342;28;20382;-85
2021/12/17 12:34:32;;;;;;;3.97;3.13;;;2.90;90.90;;;;;;5058707;28;20068;-82
2021/12/17 12:37:17;;;;;;;6.53;3.22;;;3.00;91.00;;;;;;5059094;28;20033;-83
2021/12/17 12:39:53;;;;;;;7.32;3.00;;;3.00;91.10;;;;;;5059729;28;20392;-81
2021/12/17 12:42:28;;;;;;;4.05;2.63;;;3.00;90.60;;;;;;5054433;28;20050;-83
2021/12/17 12:44:57;;;;;;;3.35;2.42;;;3.00;90.50;;;;;;5040996;28;20026;-81
2021/12/17 12:47:31;;;;;;;3.05;2.05;;;3.00;90.40;;;;;;5057589;28;20080;-84
2021/12/17 12:50:31;;;;;;;3.50;2.35;;;2.90;90.30;;;;;;5059323;28;20083;-84
2021/12/17 12:53:03;;;;;;;5.30;2.80;;;2.80;90.50;;;;;;5055297;28;20498;-83
2021/12/17 12:55:40;;;;;;;5.53;3.60;;;2.80;90.80;;;;;;5056558;28;20029;-85
2021/12/17 12:58:13;;;;;;;6.53;3.30;;;2.70;90.80;;;;;;5056905;28;20021;-85
2021/12/17 13:00:54;;;;;;;6.25;3.53;;;2.70;91.10;;;;;;5059243;28;20021;-83
2021/12/17 13:03:32;;;;;;;7.35;5.22;;;2.70;91.20;;;;;;5068906;28;20443;-86
2021/12/17 13:05:59;;;;;;;6.90;4.65;;;2.70;91.50;;;;;;5047277;28;20041;-87
2021/12/17 13:08:30;;;;;;;5.93;3.20;;;2.70;91.60;;;;;;5063765;28;20095;-84
2021/12/17 13:11:00;;;;;;;6.32;3.38;;;2.80;91.40;;;;;;5057457;28;20036;-83
2021/12/17 13:13:37;;;;;;;7.05;3.25;;;2.80;91.40;;;;;;5058059;28;20032;-84
2021/12/17 13:16:19;;;;;;;3.97;2.83;;;2.80;91.10;;;;;;5057866;28;20064;-83
2021/12/17 13:21:41;;;;;;;9.82;3.50;;;2.70;90.90;;;;;;5038636;28;20031;-81
2021/12/17 13:24:14;;;;;;;4.75;3.20;;;2.70;91.10;;;;;;5037991;28;20049;-83
2021/12/17 13:27:01;;;;;;;6.53;2.95;;;2.70;91.20;;;;;;5039854;28;20080;-83
2021/12/17 13:29:30;;;;;;;6.65;3.10;;;2.70;91.20;;;;;;5055875;28;20030;-84
2021/12/17 13:32:09;;;;;;;7.03;3.70;;;2.70;91.20;;;;;;5042768;28;20021;-83
2021/12/17 13:34:36;;;;;;;5.25;3.05;;;2.70;91.40;;;;;;5043121;28;20032;-87
2021/12/17 13:37:20;;;;;;;4.53;3.20;;;2.70;91.80;;;;;;5039565;28;20044;-84
2021/12/17 13:39:51;;;;;;;5.75;2.72;;;2.60;92.20;;;;;;5037937;28;20039;-82
2021/12/17 13:42:30;;;;;;;3.85;2.10;;;2.40;92.50;;;;;;5035009;28;20077;-81
2021/12/17 13:45:05;;;;;;;4.82;2.50;;;2.30;92.80;;;;;;5037504;28;20036;-84
2021/12/17 13:47:47;;;;;;;3.17;2.17;;;2.20;93.10;;;;;;5037064;28;20037;-85
2021/12/17 13:50:31;;;;;;;3.33;2.35;;;2.10;93.30;;;;;;5039293;28;20025;-82
2021/12/17 13:53:11;;;;;;;3.03;2.13;;;2.10;93.10;;;;;;5048388;28;20091;-82
2021/12/17 13:55:40;;;;;;;3.45;1.98;;;2.20;93.40;;;;;;5057224;28;20107;-85
2021/12/17 13:58:15;;;;;;;3.67;2.00;;;2.20;93.00;;;;;;5057233;28;20382;-85
2021/12/17 14:00:46;;;;;;;4.00;2.50;;;2.10;92.90;;;;;;5057246;28;20029;-83
2021/12/17 14:03:15;;;;;;;3.67;1.73;;;2.10;92.80;;;;;;5057396;28;20055;-84
2021/12/17 14:05:48;;;;;;;2.67;2.13;;;2.10;92.50;;;;;;5057499;28;20025;-85
2021/12/17 14:08:17;;;;;;;3.33;2.00;;;2.10;92.60;;;;;;5057422;28;20033;-83
2021/12/17 14:10:44;;;;;;;3.75;2.47;;;2.10;92.80;;;;;;5056712;28;20040;-83
2021/12/17 14:13:16;;;;;;;5.13;2.30;;;2.00;92.90;;;;;;5056335;28;20032;-83
2021/12/17 14:15:45;;;;;;;5.35;2.30;;;2.10;93.00;;;;;;5055722;28;20025;-81
2021/12/17 14:18:16;;;;;;;3.45;1.98;;;2.00;93.00;;;;;;5058536;28;20099;-84
2021/12/17 14:20:54;;;;;;;3.35;1.88;;;2.10;93.10;;;;;;5058731;28;20059;-82
2021/12/17 14:23:25;;;;;;;4.85;2.00;;;2.10;93.00;;;;;;5058302;28;20096;-82
2021/12/17 14:26:01;;;;;;;4.63;2.42;;;2.00;92.90;;;;;;5054739;28;20036;-86
2021/12/17 14:28:32;;;;;;;3.05;2.35;;;2.10;92.90;;;;;;5057395;28;20031;-86
2021/12/17 14:31:10;;;;;;;6.68;2.50;;;2.10;92.80;;;;;;5061810;28;20017;-85
2021/12/17 14:33:54;;;;;;;4.35;3.33;;;2.10;92.70;;;;;;5056787;28;20389;-84
2021/12/17 14:36:38;;;;;;;5.63;3.10;;;2.20;92.70;;;;;;5056267;28;20394;-85
2021/12/17 14:39:09;;;;;;;5.43;3.30;;;2.10;92.40;;;;;;5056357;28;20385;-82
2021/12/17 14:41:55;;;;;;;3.55;2.35;;;2.00;92.40;;;;;;5039827;28;20375;-84
2021/12/17 14:47:05;;;;;;;3.53;2.88;;;2.00;92.20;;;;;;5035972;28;20506;-86
2021/12/17 15:05:26;;;;;;;6.50;2.25;;;1.90;92.20;;;;;;5055128;28;20022;-83
2021/12/17 15:07:56;;;;;;;6.30;2.73;;;1.90;92.20;;;;;;5055344;28;20087;-86
2021/12/17 15:10:23;;;;;;;2.60;1.30;;;2.00;92.30;;;;;;5056088;28;20262;-83
2021/12/17 15:12:56;;;;;;;1.73;1.20;;;2.00;92.10;;;;;;5054464;28;20049;-83
2021/12/17 15:15:24;;;;;;;2.42;1.20;;;2.00;91.50;;;;;;5054185;28;20273;-83
2021/12/17 15:17:52;;;;;;;2.22;1.52;;;2.00;91.40;;;;;;5054979;28;20029;-83
2021/12/17 15:20:21;;;;;;;2.15;1.08;;;2.00;91.20;;;;;;5055129;28;20017;-82
2021/12/17 15:22:47;;;;;;;2.47;1.50;;;2.00;91.00;;;;;;5055401;28;20028;-83
2021/12/17 15:25:14;;;;;;;2.95;1.30;;;2.00;90.60;;;;;;5054496;28;20044;-87
2021/12/17 15:27:41;;;;;;;2.50;1.83;;;2.00;90.60;;;;;;5056965;28;20474;-86
2021/12/17 15:30:18;;;;;;;1.60;1.20;;;2.00;90.70;;;;;;5056425;28;20021;-81
2021/12/17 15:32:44;;;;;;;1.98;1.45;;;2.00;90.60;;;;;;5054577;28;20285;-83
2021/12/17 15:35:12;;;;;;;3.90;1.48;;;2.00;90.50;;;;;;5056722;28;20025;-86
2021/12/17 15:37:39;;;;;;;3.55;1.88;;;2.00;90.60;;;;;;5056022;28;20474;-81
2021/12/17 15:40:06;;;;;;;1.80;1.40;;;2.00;90.70;;;;;;5044107;28;20034;-83
2021/12/17 15:42:32;;;;;;;3.33;2.63;;;2.00;90.40;;;;;;5033886;28;20057;-85
2021/12/17 15:44:58;;;;;;;3.10;2.05;;;2.00;90.40;;;;;;5036673;28;20029;-82
2021/12/17 15:47:23;;;;;;;3.15;2.00;;;2.00;90.60;;;;;;5037517;28;20112;-81
2021/12/17 15:49:49;;;;;;;3.33;2.00;;;2.10;90.80;;;;;;5035267;28;20094;-83
2021/12/17 15:52:15;;;;;;;3.88;2.60;;;2.10;90.80;;;;;;5041234;28;20032;-89
2021/12/17 15:54:41;;;;;;;3.15;2.40;;;2.10;90.90;;;;;;5058892;28;20060;-83
2021/12/17 15:57:11;;;;;;;4.43;2.28;;;2.10;90.80;;;;;;5059422;28;20028;-83
2021/12/17 15:59:37;;;;;;;6.63;3.45;;;2.10;90.50;;;;;;5057341;28;20021;-84
2021/12/17 16:02:03;;;;;;;3.33;1.88;;;2.00;90.50;;;;;;5058775;28;20442;-83
2021/12/17 16:04:37;;;;;;;1.92;1.40;;;2.10;90.70;;;;;;5057457;28;20076;-83
2021/12/17 16:07:04;;;;;;;2.80;1.77;;;2.10;90.40;;;;;;5059072;28;20107;-85
2021/12/17 16:23:07;;;;;;;4.10;2.47;;;1.90;91.90;;;;;;5059468;28;20032;-80
2021/12/17 16:25:32;;;;;;;4.53;2.85;;;1.90;92.10;;;;;;5059110;28;20478;-86
2021/12/17 16:27:58;;;;;;;5.15;3.85;;;1.90;92.50;;;;;;5058137;28;20033;-82
2021/12/17 16:30:24;;;;;;;5.55;3.50;;;1.90;92.50;;;;;;5058854;28;20013;-83
2021/12/17 16:32:51;;;;;;;9.00;3.90;;;1.90;92.80;;;;;;5061083;28;20024;-81
2021/12/17 16:35:17;;;;;;;7.38;4.10;;;1.90;93.10;;;;;;5063495;28;20045;-83
2021/12/17 16:37:43;;;;;;;7.50;3.72;;;1.80;93.40;;;;;;5057339;28;20025;-83
2021/12/17 16:40:10;;;;;;;6.88;4.68;;;1.80;93.70;;;;;;5037602;28;20029;-82
2021/12/17 16:42:35;;;;;;;5.15;4.25;;;1.80;94.00;;;;;;5039876;28;20045;-81
2021/12/17 16:45:20;;;;;;;7.03;4.53;;;1.80;94.10;;;;;;5040185;28;20094;-82
2021/12/17 16:47:46;;;;;;;6.85;5.07;;;1.70;94.20;;;;;;5036750;28;20045;-82
2021/12/17 16:50:12;;;;;;;6.95;4.53;;;1.80;94.30;;;;;;5037519;28;20052;-83
2021/12/17 16:52:39;;;;;;;6.93;5.88;;;1.80;94.40;;;;;;5040901;28;20022;-83
2021/12/17 16:55:08;;;;;;;8.05;5.57;;;1.80;94.50;;;;;;5037860;28;20489;-81